KSHD/SHD METAR and TAF weather

Enter ICAO airport designator
Station Type Date Time Source
KSHD METAR 2022/09/26 08:55 UTC NOAA

KSHD 260855Z AUTO 23003KT 10SM CLR 11/09 A2980 RMK AO2 T01120094


Station Type Date Time Source
KSHD Decoded METAR 2022/09/26 08:55 UTC NOAA

Staunton / Shenandoah, VA, United States (KSHD) 38-16N 078-54W
Sep 26, 2022 - 04:55 AM EDT / 2022.09.26 0855 UTC
Wind: from the SW (230 degrees) at 3 MPH (3 KT):0
Visibility: 10 mile(s):0
Sky conditions: clear
Temperature: 52.2 F (11.2 C)
Dew Point: 48.9 F (9.4 C)
Relative Humidity: 88%
Pressure (altimeter): 29.8 in. Hg (1009 hPa)
ob: KSHD 260855Z AUTO 23003KT 10SM CLR 11/09 A2980 RMK AO2 T01120094
cycle: 9

Station Type Date Time Source
KSHD TAF UTC NOAA

Error!

Example: see airport list